sensor_id;sensor_type;location;lat;lon;timestamp;temperature;humidity
5930;DHT22;2990;48.746;9.236;2023-01-09T00:58:23;6.40;99.90
5930;DHT22;2990;48.746;9.236;2023-01-09T01:00:49;6.40;99.90
5930;DHT22;2990;48.746;9.236;2023-01-09T01:03:18;6.50;99.90
5930;DHT22;2990;48.746;9.236;2023-01-09T01:05:43;6.40;99.90
5930;DHT22;2990;48.746;9.236;2023-01-09T01:08:28;6.50;99.90
5930;DHT22;2990;48.746;9.236;2023-01-09T01:10:56;6.50;99.90
5930;DHT22;2990;48.746;9.236;2023-01-09T01:13:21;6.50;99.90
5930;DHT22;2990;48.746;9.236;2023-01-09T01:15:50;6.50;99.90
5930;DHT22;2990;48.746;9.236;2023-01-09T01:18:15;6.50;99.90
5930;DHT22;2990;48.746;9.236;2023-01-09T01:20:43;6.50;99.90
5930;DHT22;2990;48.746;9.236;2023-01-09T01:23:17;6.50;99.90
5930;DHT22;2990;48.746;9.236;2023-01-09T01:26:08;6.60;99.90
5930;DHT22;2990;48.746;9.236;2023-01-09T01:28:37;6.50;99.90
5930;DHT22;2990;48.746;9.236;2023-01-09T01:31:13;6.50;99.90
5930;DHT22;2990;48.746;9.236;2023-01-09T01:33:44;6.50;99.90
5930;DHT22;2990;48.746;9.236;2023-01-09T01:36:12;6.70;99.90
5930;DHT22;2990;48.746;9.236;2023-01-09T01:38:43;6.60;99.90
5930;DHT22;2990;48.746;9.236;2023-01-09T01:41:09;6.60;99.90
5930;DHT22;2990;48.746;9.236;2023-01-09T01:43:57;6.60;99.90
5930;DHT22;2990;48.746;9.236;2023-01-09T01:46:23;6.60;99.90
5930;DHT22;2990;48.746;9.236;2023-01-09T01:49:09;6.60;99.90
5930;DHT22;2990;48.746;9.236;2023-01-09T01:51:40;6.60;99.90
5930;DHT22;2990;48.746;9.236;2023-01-09T01:54:15;6.60;99.90
5930;DHT22;2990;48.746;9.236;2023-01-09T01:56:48;6.50;99.90
5930;DHT22;2990;48.746;9.236;2023-01-09T01:59:41;6.50;99.90
5930;DHT22;2990;48.746;9.236;2023-01-09T02:02:18;6.50;99.90
5930;DHT22;2990;48.746;9.236;2023-01-09T02:04:49;6.50;99.90
5930;DHT22;2990;48.746;9.236;2023-01-09T02:07:39;6.50;99.90
5930;DHT22;2990;48.746;9.236;2023-01-09T02:12:53;6.50;99.90
5930;DHT22;2990;48.746;9.236;2023-01-09T02:15:22;6.50;99.90
5930;DHT22;2990;48.746;9.236;2023-01-09T02:33:00;6.50;99.90
5930;DHT22;2990;48.746;9.236;2023-01-09T02:41:37;6.50;99.90
5930;DHT22;2990;48.746;9.236;2023-01-09T02:44:23;6.50;99.90
5930;DHT22;2990;48.746;9.236;2023-01-09T02:53:15;6.50;99.90
5930;DHT22;2990;48.746;9.236;2023-01-09T03:02:03;6.50;99.90
5930;DHT22;2990;48.746;9.236;2023-01-09T03:11:04;6.50;99.90
5930;DHT22;2990;48.746;9.236;2023-01-09T03:14:00;6.40;99.90
5930;DHT22;2990;48.746;9.236;2023-01-09T03:16:34;6.40;99.90
5930;DHT22;2990;48.746;9.236;2023-01-09T03:19:11;6.40;99.90
5930;DHT22;2990;48.746;9.236;2023-01-09T03:21:39;6.40;99.90
5930;DHT22;2990;48.746;9.236;2023-01-09T03:24:10;6.30;99.90
5930;DHT22;2990;48.746;9.236;2023-01-09T03:26:39;6.30;99.90
5930;DHT22;2990;48.746;9.236;2023-01-09T03:29:20;6.30;99.90
5930;DHT22;2990;48.746;9.236;2023-01-09T03:31:48;6.20;99.90
5930;DHT22;2990;48.746;9.236;2023-01-09T03:34:17;6.20;99.90
5930;DHT22;2990;48.746;9.236;2023-01-09T03:36:46;6.10;99.90
5930;DHT22;2990;48.746;9.236;2023-01-09T03:39:14;6.10;99.90
5930;DHT22;2990;48.746;9.236;2023-01-09T03:41:50;6.00;99.90
5930;DHT22;2990;48.746;9.236;2023-01-09T03:44:21;6.00;99.90
5930;DHT22;2990;48.746;9.236;2023-01-09T03:46:47;5.90;99.90
5930;DHT22;2990;48.746;9.236;2023-01-09T03:49:16;5.90;99.90
5930;DHT22;2990;48.746;9.236;2023-01-09T03:51:42;6.00;99.90
5930;DHT22;2990;48.746;9.236;2023-01-09T03:54:10;5.90;99.90
5930;DHT22;2990;48.746;9.236;2023-01-09T03:56:36;5.90;99.90
5930;DHT22;2990;48.746;9.236;2023-01-09T03:59:04;5.90;99.90
5930;DHT22;2990;48.746;9.236;2023-01-09T04:01:38;5.90;99.90
5930;DHT22;2990;48.746;9.236;2023-01-09T04:04:22;5.90;99.90
5930;DHT22;2990;48.746;9.236;2023-01-09T04:06:53;5.90;99.90
5930;DHT22;2990;48.746;9.236;2023-01-09T04:09:19;5.90;99.90
5930;DHT22;2990;48.746;9.236;2023-01-09T04:11:51;5.90;99.90
5930;DHT22;2990;48.746;9.236;2023-01-09T04:14:22;5.90;99.90
5930;DHT22;2990;48.746;9.236;2023-01-09T04:16:50;5.80;99.90
5930;DHT22;2990;48.746;9.236;2023-01-09T04:19:18;6.10;99.90
5930;DHT22;2990;48.746;9.236;2023-01-09T04:21:52;5.90;99.90
5930;DHT22;2990;48.746;9.236;2023-01-09T04:24:20;5.90;99.90
5930;DHT22;2990;48.746;9.236;2023-01-09T04:26:46;5.90;99.90
5930;DHT22;2990;48.746;9.236;2023-01-09T04:29:33;5.90;99.90
5930;DHT22;2990;48.746;9.236;2023-01-09T04:31:58;5.90;99.90
5930;DHT22;2990;48.746;9.236;2023-01-09T04:34:24;5.80;99.90
5930;DHT22;2990;48.746;9.236;2023-01-09T04:36:51;5.70;99.90
5930;DHT22;2990;48.746;9.236;2023-01-09T04:39:32;5.70;99.90
5930;DHT22;2990;48.746;9.236;2023-01-09T04:42:03;5.60;99.90
5930;DHT22;2990;48.746;9.236;2023-01-09T04:44:31;5.60;99.90
5930;DHT22;2990;48.746;9.236;2023-01-09T04:47:02;5.50;99.90
5930;DHT22;2990;48.746;9.236;2023-01-09T04:49:46;5.40;99.90
5930;DHT22;2990;48.746;9.236;2023-01-09T04:52:20;5.50;99.90
5930;DHT22;2990;48.746;9.236;2023-01-09T04:54:52;5.30;25.90
5930;DHT22;2990;48.746;9.236;2023-01-09T04:57:18;5.20;15.70
5930;DHT22;2990;48.746;9.236;2023-01-09T04:59:43;5.20;35.20
5930;DHT22;2990;48.746;9.236;2023-01-09T05:02:25;5.10;53.00
5930;DHT22;2990;48.746;9.236;2023-01-09T05:04:57;5.10;69.70
5930;DHT22;2990;48.746;9.236;2023-01-09T05:07:25;5.00;85.90
5930;DHT22;2990;48.746;9.236;2023-01-09T05:09:54;5.00;40.80
5930;DHT22;2990;48.746;9.236;2023-01-09T05:12:20;5.00;30.10
5930;DHT22;2990;48.746;9.236;2023-01-09T05:14:49;5.00;3.40
5930;DHT22;2990;48.746;9.236;2023-01-09T05:17:27;5.00;1.00
5930;DHT22;2990;48.746;9.236;2023-01-09T05:19:58;4.90;1.00
5930;DHT22;2990;48.746;9.236;2023-01-09T05:22:32;5.00;1.00
5930;DHT22;2990;48.746;9.236;2023-01-09T05:24:58;5.00;1.00
5930;DHT22;2990;48.746;9.236;2023-01-09T05:27:27;5.00;1.00
5930;DHT22;2990;48.746;9.236;2023-01-09T05:29:58;4.90;1.00
5930;DHT22;2990;48.746;9.236;2023-01-09T05:32:26;4.90;1.00
5930;DHT22;2990;48.746;9.236;2023-01-09T05:34:54;4.80;1.00
5930;DHT22;2990;48.746;9.236;2023-01-09T05:37:23;4.80;1.00
5930;DHT22;2990;48.746;9.236;2023-01-09T05:39:48;4.70;1.00
5930;DHT22;2990;48.746;9.236;2023-01-09T05:42:20;4.70;1.00
5930;DHT22;2990;48.746;9.236;2023-01-09T05:44:51;4.70;1.00
5930;DHT22;2990;48.746;9.236;2023-01-09T05:47:24;4.70;1.00
5930;DHT22;2990;48.746;9.236;2023-01-09T05:49:52;4.60;1.00
5930;DHT22;2990;48.746;9.236;2023-01-09T05:52:23;4.60;1.00
5930;DHT22;2990;48.746;9.236;2023-01-09T05:54:49;4.50;1.00
5930;DHT22;2990;48.746;9.236;2023-01-09T05:57:17;4.60;1.00
5930;DHT22;2990;48.746;9.236;2023-01-09T05:59:47;4.40;1.00
5930;DHT22;2990;48.746;9.236;2023-01-09T06:02:15;4.40;1.00
5930;DHT22;2990;48.746;9.236;2023-01-09T06:05:10;4.30;1.00
5930;DHT22;2990;48.746;9.236;2023-01-09T06:07:45;4.30;1.00
5930;DHT22;2990;48.746;9.236;2023-01-09T06:10:29;4.20;1.00
5930;DHT22;2990;48.746;9.236;2023-01-09T06:12:54;4.20;1.00
5930;DHT22;2990;48.746;9.236;2023-01-09T06:15:20;4.10;1.00
5930;DHT22;2990;48.746;9.236;2023-01-09T06:17:46;4.20;1.00
5930;DHT22;2990;48.746;9.236;2023-01-09T06:20:12;4.10;1.00
5930;DHT22;2990;48.746;9.236;2023-01-09T06:22:40;4.00;3.20
5930;DHT22;2990;48.746;9.236;2023-01-09T06:25:10;4.00;3.50
5930;DHT22;2990;48.746;9.236;2023-01-09T06:27:36;4.00;21.90
5930;DHT22;2990;48.746;9.236;2023-01-09T06:30:02;4.00;18.70
5930;DHT22;2990;48.746;9.236;2023-01-09T06:32:31;4.00;27.20
5930;DHT22;2990;48.746;9.236;2023-01-09T06:35:07;3.80;28.00
5930;DHT22;2990;48.746;9.236;2023-01-09T06:37:33;3.90;38.20
5930;DHT22;2990;48.746;9.236;2023-01-09T06:40:01;3.90;40.10
5930;DHT22;2990;48.746;9.236;2023-01-09T06:42:26;3.90;40.50
5930;DHT22;2990;48.746;9.236;2023-01-09T06:44:52;3.90;35.60
5930;DHT22;2990;48.746;9.236;2023-01-09T06:47:26;3.80;31.70
5930;DHT22;2990;48.746;9.236;2023-01-09T06:50:01;3.70;40.80
5930;DHT22;2990;48.746;9.236;2023-01-09T06:52:35;3.70;55.60
5930;DHT22;2990;48.746;9.236;2023-01-09T06:55:01;3.70;64.40
5930;DHT22;2990;48.746;9.236;2023-01-09T06:57:30;3.70;78.30
5930;DHT22;2990;48.746;9.236;2023-01-09T06:59:55;3.70;91.50
5930;DHT22;2990;48.746;9.236;2023-01-09T07:02:21;3.80;42.50
5930;DHT22;2990;48.746;9.236;2023-01-09T07:04:49;3.80;12.90
5930;DHT22;2990;48.746;9.236;2023-01-09T07:07:17;3.80;1.00
5930;DHT22;2990;48.746;9.236;2023-01-09T07:09:46;3.90;1.00
5930;DHT22;2990;48.746;9.236;2023-01-09T07:12:14;3.90;1.00
5930;DHT22;2990;48.746;9.236;2023-01-09T07:14:43;4.00;1.00
5930;DHT22;2990;48.746;9.236;2023-01-09T07:17:11;4.10;1.00
5930;DHT22;2990;48.746;9.236;2023-01-09T07:19:42;4.00;1.00
5930;DHT22;2990;48.746;9.236;2023-01-09T07:22:09;4.00;1.00
5930;DHT22;2990;48.746;9.236;2023-01-09T07:24:35;3.90;1.00
5930;DHT22;2990;48.746;9.236;2023-01-09T07:27:01;4.00;1.00
5930;DHT22;2990;48.746;9.236;2023-01-09T07:29:27;4.00;1.00
5930;DHT22;2990;48.746;9.236;2023-01-09T07:31:56;4.00;1.00
5930;DHT22;2990;48.746;9.236;2023-01-09T07:34:21;4.00;1.00
5930;DHT22;2990;48.746;9.236;2023-01-09T07:36:47;4.00;1.00
5930;DHT22;2990;48.746;9.236;2023-01-09T07:39:15;4.10;1.00
5930;DHT22;2990;48.746;9.236;2023-01-09T07:41:41;4.00;1.00
5930;DHT22;2990;48.746;9.236;2023-01-09T07:44:06;4.00;1.00
5930;DHT22;2990;48.746;9.236;2023-01-09T07:46:35;4.00;1.00
5930;DHT22;2990;48.746;9.236;2023-01-09T07:49:04;4.00;1.00
5930;DHT22;2990;48.746;9.236;2023-01-09T07:51:32;4.00;1.00
5930;DHT22;2990;48.746;9.236;2023-01-09T07:53:58;4.10;1.00
5930;DHT22;2990;48.746;9.236;2023-01-09T07:56:24;4.10;1.00
5930;DHT22;2990;48.746;9.236;2023-01-09T07:58:50;4.10;1.00
5930;DHT22;2990;48.746;9.236;2023-01-09T08:01:16;4.10;1.00
5930;DHT22;2990;48.746;9.236;2023-01-09T08:03:41;4.10;1.00
5930;DHT22;2990;48.746;9.236;2023-01-09T08:06:07;4.00;1.00
5930;DHT22;2990;48.746;9.236;2023-01-09T08:08:33;4.10;1.00
5930;DHT22;2990;48.746;9.236;2023-01-09T08:11:01;4.10;1.00
5930;DHT22;2990;48.746;9.236;2023-01-09T08:13:26;4.20;1.00
5930;DHT22;2990;48.746;9.236;2023-01-09T08:15:52;4.30;1.00
5930;DHT22;2990;48.746;9.236;2023-01-09T08:18:18;4.30;1.00
5930;DHT22;2990;48.746;9.236;2023-01-09T08:20:49;4.40;1.00
5930;DHT22;2990;48.746;9.236;2023-01-09T08:23:15;4.40;1.00
5930;DHT22;2990;48.746;9.236;2023-01-09T08:25:43;4.50;99.90
5930;DHT22;2990;48.746;9.236;2023-01-09T08:28:14;4.50;99.90
5930;DHT22;2990;48.746;9.236;2023-01-09T08:30:50;4.50;1.00
5930;DHT22;2990;48.746;9.236;2023-01-09T08:33:16;4.40;1.00
5930;DHT22;2990;48.746;9.236;2023-01-09T08:35:44;4.40;99.90
5930;DHT22;2990;48.746;9.236;2023-01-09T08:38:13;4.50;99.90
5930;DHT22;2990;48.746;9.236;2023-01-09T08:40:51;4.50;99.90
5930;DHT22;2990;48.746;9.236;2023-01-09T08:43:23;4.80;99.90
5930;DHT22;2990;48.746;9.236;2023-01-09T08:46:18;4.80;1.00
5930;DHT22;2990;48.746;9.236;2023-01-09T08:49:03;4.90;99.90
5930;DHT22;2990;48.746;9.236;2023-01-09T08:51:32;5.00;99.90
5930;DHT22;2990;48.746;9.236;2023-01-09T08:54:00;5.20;99.90
5930;DHT22;2990;48.746;9.236;2023-01-09T08:56:31;5.30;1.00
5930;DHT22;2990;48.746;9.236;2023-01-09T08:58:59;5.40;1.00
5930;DHT22;2990;48.746;9.236;2023-01-09T09:01:25;5.50;99.90
5930;DHT22;2990;48.746;9.236;2023-01-09T09:03:51;5.70;1.00
5930;DHT22;2990;48.746;9.236;2023-01-09T09:06:19;5.60;99.90
5930;DHT22;2990;48.746;9.236;2023-01-09T09:08:45;5.60;99.90
5930;DHT22;2990;48.746;9.236;2023-01-09T09:11:11;5.90;99.90
5930;DHT22;2990;48.746;9.236;2023-01-09T09:13:36;6.10;1.00
5930;DHT22;2990;48.746;9.236;2023-01-09T09:16:08;6.20;1.00
5930;DHT22;2990;48.746;9.236;2023-01-09T09:18:33;6.40;1.00
5930;DHT22;2990;48.746;9.236;2023-01-09T09:21:07;6.60;1.00
5930;DHT22;2990;48.746;9.236;2023-01-09T09:23:35;6.70;1.00
5930;DHT22;2990;48.746;9.236;2023-01-09T09:26:01;6.70;1.00
5930;DHT22;2990;48.746;9.236;2023-01-09T09:28:32;6.80;99.90
5930;DHT22;2990;48.746;9.236;2023-01-09T09:30:57;6.90;1.00
5930;DHT22;2990;48.746;9.236;2023-01-09T09:33:23;7.00;1.00
5930;DHT22;2990;48.746;9.236;2023-01-09T09:35:48;7.20;1.00
5930;DHT22;2990;48.746;9.236;2023-01-09T09:38:14;7.40;1.00
5930;DHT22;2990;48.746;9.236;2023-01-09T09:40:54;7.50;99.90
5930;DHT22;2990;48.746;9.236;2023-01-09T09:46:27;7.60;1.00
5930;DHT22;2990;48.746;9.236;2023-01-09T09:49:06;7.80;88.80
5930;DHT22;2990;48.746;9.236;2023-01-09T09:52:01;7.80;1.00
5930;DHT22;2990;48.746;9.236;2023-01-09T09:54:34;7.80;1.00
5930;DHT22;2990;48.746;9.236;2023-01-09T09:57:03;8.00;1.00
5930;DHT22;2990;48.746;9.236;2023-01-09T09:59:35;8.20;1.00
5930;DHT22;2990;48.746;9.236;2023-01-09T10:02:29;8.30;1.00
5930;DHT22;2990;48.746;9.236;2023-01-09T10:05:11;8.50;1.00
5930;DHT22;2990;48.746;9.236;2023-01-09T10:07:46;8.50;1.00
5930;DHT22;2990;48.746;9.236;2023-01-09T10:10:21;8.70;1.00
5930;DHT22;2990;48.746;9.236;2023-01-09T10:12:56;8.80;1.00
5930;DHT22;2990;48.746;9.236;2023-01-09T10:15:46;8.80;1.00
5930;DHT22;2990;48.746;9.236;2023-01-09T10:21:02;8.30;1.00
5930;DHT22;2990;48.746;9.236;2023-01-09T10:26:11;8.20;1.00
5930;DHT22;2990;48.746;9.236;2023-01-09T10:39:24;7.70;1.00
5930;DHT22;2990;48.746;9.236;2023-01-09T10:41:56;7.50;1.00
5930;DHT22;2990;48.746;9.236;2023-01-09T10:44:37;7.20;1.00
5930;DHT22;2990;48.746;9.236;2023-01-09T10:47:26;7.10;1.00
5930;DHT22;2990;48.746;9.236;2023-01-09T10:49:54;7.10;1.00
5930;DHT22;2990;48.746;9.236;2023-01-09T10:52:27;7.20;1.00
5930;DHT22;2990;48.746;9.236;2023-01-09T10:55:18;7.00;99.90
5930;DHT22;2990;48.746;9.236;2023-01-09T10:57:53;7.00;99.90
5930;DHT22;2990;48.746;9.236;2023-01-09T11:00:22;7.10;1.00
5930;DHT22;2990;48.746;9.236;2023-01-09T11:02:50;7.00;1.00
5930;DHT22;2990;48.746;9.236;2023-01-09T11:05:26;7.00;1.00
5930;DHT22;2990;48.746;9.236;2023-01-09T11:10:59;7.00;98.10
5930;DHT22;2990;48.746;9.236;2023-01-09T11:13:36;6.90;1.00
5930;DHT22;2990;48.746;9.236;2023-01-09T11:16:24;6.80;1.00
5930;DHT22;2990;48.746;9.236;2023-01-09T11:18:55;6.70;1.00
5930;DHT22;2990;48.746;9.236;2023-01-09T11:21:37;6.80;1.00
5930;DHT22;2990;48.746;9.236;2023-01-09T11:26:46;6.80;1.00
5930;DHT22;2990;48.746;9.236;2023-01-09T11:29:13;6.90;99.90
5930;DHT22;2990;48.746;9.236;2023-01-09T11:31:50;6.90;1.00
5930;DHT22;2990;48.746;9.236;2023-01-09T11:34:18;6.90;99.90
5930;DHT22;2990;48.746;9.236;2023-01-09T11:36:45;6.90;1.00
5930;DHT22;2990;48.746;9.236;2023-01-09T11:39:29;6.90;1.00
5930;DHT22;2990;48.746;9.236;2023-01-09T11:42:01;7.00;1.00
5930;DHT22;2990;48.746;9.236;2023-01-09T11:44:29;7.20;1.00
5930;DHT22;2990;48.746;9.236;2023-01-09T11:47:03;7.60;1.00
5930;DHT22;2990;48.746;9.236;2023-01-09T11:49:51;7.80;99.90
5930;DHT22;2990;48.746;9.236;2023-01-09T11:52:31;8.10;1.00
5930;DHT22;2990;48.746;9.236;2023-01-09T11:55:01;8.30;1.00
5930;DHT22;2990;48.746;9.236;2023-01-09T11:57:34;8.30;1.00
5930;DHT22;2990;48.746;9.236;2023-01-09T12:00:22;8.20;1.00
5930;DHT22;2990;48.746;9.236;2023-01-09T12:02:58;8.20;1.00
5930;DHT22;2990;48.746;9.236;2023-01-09T12:05:47;8.00;1.00
5930;DHT22;2990;48.746;9.236;2023-01-09T12:08:33;7.90;1.00
5930;DHT22;2990;48.746;9.236;2023-01-09T12:11:03;7.80;1.00
5930;DHT22;2990;48.746;9.236;2023-01-09T12:14:14;7.80;1.00
5930;DHT22;2990;48.746;9.236;2023-01-09T12:17:00;7.80;1.00
5930;DHT22;2990;48.746;9.236;2023-01-09T12:19:48;7.70;1.00
5930;DHT22;2990;48.746;9.236;2023-01-09T12:30:31;7.70;1.00
5930;DHT22;2990;48.746;9.236;2023-01-09T12:33:14;7.70;1.00
5930;DHT22;2990;48.746;9.236;2023-01-09T12:36:06;7.70;94.90
5930;DHT22;2990;48.746;9.236;2023-01-09T12:38:39;7.70;99.90
5930;DHT22;2990;48.746;9.236;2023-01-09T12:46:39;7.70;1.90
5930;DHT22;2990;48.746;9.236;2023-01-09T12:52:04;7.80;1.00
5930;DHT22;2990;48.746;9.236;2023-01-09T12:54:40;7.80;1.00
5930;DHT22;2990;48.746;9.236;2023-01-09T12:59:51;7.70;1.00
5930;DHT22;2990;48.746;9.236;2023-01-09T13:02:34;7.50;1.00
5930;DHT22;2990;48.746;9.236;2023-01-09T13:05:22;7.50;99.90
5930;DHT22;2990;48.746;9.236;2023-01-09T13:08:05;7.40;99.90
5930;DHT22;2990;48.746;9.236;2023-01-09T13:10:38;7.40;99.90
5930;DHT22;2990;48.746;9.236;2023-01-09T13:13:18;7.50;99.90
5930;DHT22;2990;48.746;9.236;2023-01-09T13:15:47;7.50;1.00
5930;DHT22;2990;48.746;9.236;2023-01-09T13:18:42;7.50;99.90
5930;DHT22;2990;48.746;9.236;2023-01-09T13:21:11;7.50;99.90
5930;DHT22;2990;48.746;9.236;2023-01-09T13:26:38;7.30;1.00
5930;DHT22;2990;48.746;9.236;2023-01-09T13:29:18;7.10;1.00
5930;DHT22;2990;48.746;9.236;2023-01-09T13:34:23;6.80;1.00
5930;DHT22;2990;48.746;9.236;2023-01-09T13:36:53;6.80;1.00
5930;DHT22;2990;48.746;9.236;2023-01-09T13:39:27;6.70;1.00
5930;DHT22;2990;48.746;9.236;2023-01-09T13:42:03;6.80;1.00
5930;DHT22;2990;48.746;9.236;2023-01-09T13:44:48;6.70;99.90
5930;DHT22;2990;48.746;9.236;2023-01-09T13:47:20;6.70;1.00
5930;DHT22;2990;48.746;9.236;2023-01-09T13:52:34;6.80;99.90
5930;DHT22;2990;48.746;9.236;2023-01-09T14:03:33;6.50;1.00
5930;DHT22;2990;48.746;9.236;2023-01-09T14:08:28;6.60;99.90
5930;DHT22;2990;48.746;9.236;2023-01-09T14:10:59;6.50;99.90
5930;DHT22;2990;48.746;9.236;2023-01-09T14:13:43;6.50;1.00
5930;DHT22;2990;48.746;9.236;2023-01-09T14:16:22;6.40;99.90
5930;DHT22;2990;48.746;9.236;2023-01-09T14:19:03;6.40;1.00
5930;DHT22;2990;48.746;9.236;2023-01-09T14:24:16;6.40;1.00
5930;DHT22;2990;48.746;9.236;2023-01-09T14:26:48;6.30;1.00
5930;DHT22;2990;48.746;9.236;2023-01-09T14:29:36;6.30;1.00
5930;DHT22;2990;48.746;9.236;2023-01-09T14:35:16;6.30;99.90
5930;DHT22;2990;48.746;9.236;2023-01-09T14:37:43;6.30;99.90
5930;DHT22;2990;48.746;9.236;2023-01-09T14:40:21;6.20;1.00
5930;DHT22;2990;48.746;9.236;2023-01-09T14:42:52;6.10;1.00
5930;DHT22;2990;48.746;9.236;2023-01-09T14:45:21;6.10;1.00
5930;DHT22;2990;48.746;9.236;2023-01-09T14:48:04;6.00;1.00
5930;DHT22;2990;48.746;9.236;2023-01-09T14:50:36;5.90;1.00
5930;DHT22;2990;48.746;9.236;2023-01-09T14:53:17;5.80;99.90
5930;DHT22;2990;48.746;9.236;2023-01-09T14:55:48;5.80;15.10
5930;DHT22;2990;48.746;9.236;2023-01-09T14:58:25;5.80;1.00
5930;DHT22;2990;48.746;9.236;2023-01-09T15:03:56;5.70;1.00
5930;DHT22;2990;48.746;9.236;2023-01-09T15:06:27;5.70;1.00
5930;DHT22;2990;48.746;9.236;2023-01-09T15:09:03;5.60;1.00
5930;DHT22;2990;48.746;9.236;2023-01-09T15:11:31;5.60;1.00
5930;DHT22;2990;48.746;9.236;2023-01-09T15:13:58;5.60;1.00
5930;DHT22;2990;48.746;9.236;2023-01-09T15:16:26;5.50;1.00
5930;DHT22;2990;48.746;9.236;2023-01-09T15:18:55;5.60;1.00
5930;DHT22;2990;48.746;9.236;2023-01-09T15:21:25;5.60;1.00
5930;DHT22;2990;48.746;9.236;2023-01-09T15:23:52;5.60;49.20
5930;DHT22;2990;48.746;9.236;2023-01-09T15:26:26;5.50;99.90
5930;DHT22;2990;48.746;9.236;2023-01-09T15:28:59;5.50;1.00
5930;DHT22;2990;48.746;9.236;2023-01-09T15:31:25;5.60;1.00
5930;DHT22;2990;48.746;9.236;2023-01-09T15:33:51;5.60;1.00
5930;DHT22;2990;48.746;9.236;2023-01-09T15:36:18;5.60;99.90
5930;DHT22;2990;48.746;9.236;2023-01-09T15:38:46;5.70;1.00
5930;DHT22;2990;48.746;9.236;2023-01-09T15:41:16;5.70;1.00
5930;DHT22;2990;48.746;9.236;2023-01-09T15:44:06;5.60;1.00
5930;DHT22;2990;48.746;9.236;2023-01-09T15:46:36;5.90;25.50
5930;DHT22;2990;48.746;9.236;2023-01-09T17:07:40;4.60;1.00
5930;DHT22;2990;48.746;9.236;2023-01-09T17:13:58;4.50;1.00
5930;DHT22;2990;48.746;9.236;2023-01-09T17:32:53;4.00;1.00
5930;DHT22;2990;48.746;9.236;2023-01-09T17:36:16;4.10;1.00
5930;DHT22;2990;48.746;9.236;2023-01-09T17:39:13;4.10;1.00
5930;DHT22;2990;48.746;9.236;2023-01-09T17:44:59;4.10;1.00
5930;DHT22;2990;48.746;9.236;2023-01-09T17:47:25;4.20;1.00
5930;DHT22;2990;48.746;9.236;2023-01-09T17:49:51;4.10;1.00
5930;DHT22;2990;48.746;9.236;2023-01-09T17:59:50;4.10;1.00
5930;DHT22;2990;48.746;9.236;2023-01-09T18:02:31;4.20;1.00
5930;DHT22;2990;48.746;9.236;2023-01-09T18:04:57;4.20;1.00
5930;DHT22;2990;48.746;9.236;2023-01-09T18:07:31;4.20;1.00
5930;DHT22;2990;48.746;9.236;2023-01-09T18:13:20;4.10;1.00
5930;DHT22;2990;48.746;9.236;2023-01-09T18:15:48;4.10;1.00
5930;DHT22;2990;48.746;9.236;2023-01-09T18:18:21;4.20;1.00
5930;DHT22;2990;48.746;9.236;2023-01-09T18:20:50;4.10;1.00
5930;DHT22;2990;48.746;9.236;2023-01-09T18:23:19;4.20;1.00
5930;DHT22;2990;48.746;9.236;2023-01-09T18:25:45;4.20;1.00
5930;DHT22;2990;48.746;9.236;2023-01-09T18:28:16;4.20;1.00
5930;DHT22;2990;48.746;9.236;2023-01-09T18:30:43;4.20;1.00
5930;DHT22;2990;48.746;9.236;2023-01-09T18:33:13;4.20;1.00
5930;DHT22;2990;48.746;9.236;2023-01-09T18:35:41;4.10;1.00
5930;DHT22;2990;48.746;9.236;2023-01-09T18:38:07;4.20;1.00
5930;DHT22;2990;48.746;9.236;2023-01-09T18:40:35;4.20;1.00
5930;DHT22;2990;48.746;9.236;2023-01-09T18:43:04;4.10;1.00
5930;DHT22;2990;48.746;9.236;2023-01-09T18:45:32;4.10;1.00
5930;DHT22;2990;48.746;9.236;2023-01-09T18:47:58;4.10;1.00
5930;DHT22;2990;48.746;9.236;2023-01-09T18:50:24;4.10;1.00
5930;DHT22;2990;48.746;9.236;2023-01-09T18:52:52;4.10;1.00
5930;DHT22;2990;48.746;9.236;2023-01-09T18:55:20;4.00;1.00
5930;DHT22;2990;48.746;9.236;2023-01-09T18:58:01;4.00;1.00
5930;DHT22;2990;48.746;9.236;2023-01-09T19:00:27;4.00;1.00
5930;DHT22;2990;48.746;9.236;2023-01-09T19:02:55;4.00;1.00
5930;DHT22;2990;48.746;9.236;2023-01-09T19:05:23;4.00;13.20
5930;DHT22;2990;48.746;9.236;2023-01-09T19:07:51;3.90;21.30
5930;DHT22;2990;48.746;9.236;2023-01-09T19:10:20;3.90;23.40
5930;DHT22;2990;48.746;9.236;2023-01-09T19:12:45;3.90;43.40
5930;DHT22;2990;48.746;9.236;2023-01-09T19:15:13;4.00;34.60
5930;DHT22;2990;48.746;9.236;2023-01-09T19:17:42;3.90;57.50
5930;DHT22;2990;48.746;9.236;2023-01-09T19:20:14;4.00;67.20
5930;DHT22;2990;48.746;9.236;2023-01-09T19:23:04;3.90;77.70
5930;DHT22;2990;48.746;9.236;2023-01-09T19:25:36;3.80;65.10
5930;DHT22;2990;48.746;9.236;2023-01-09T19:28:02;3.80;78.10
5930;DHT22;2990;48.746;9.236;2023-01-09T19:30:28;3.80;86.50
5930;DHT22;2990;48.746;9.236;2023-01-09T19:33:07;3.80;89.80
5930;DHT22;2990;48.746;9.236;2023-01-09T19:35:36;3.70;92.70
5930;DHT22;2990;48.746;9.236;2023-01-09T19:38:02;3.80;97.10
5930;DHT22;2990;48.746;9.236;2023-01-09T19:40:30;3.80;99.90
5930;DHT22;2990;48.746;9.236;2023-01-09T19:42:59;3.80;99.90
5930;DHT22;2990;48.746;9.236;2023-01-09T19:45:25;3.80;99.90
5930;DHT22;2990;48.746;9.236;2023-01-09T19:47:51;3.80;99.90
5930;DHT22;2990;48.746;9.236;2023-01-09T19:53:18;3.70;99.90
5930;DHT22;2990;48.746;9.236;2023-01-09T19:55:44;3.70;99.90
5930;DHT22;2990;48.746;9.236;2023-01-09T20:01:55;3.70;99.90
5930;DHT22;2990;48.746;9.236;2023-01-09T20:11:29;3.70;99.90
5930;DHT22;2990;48.746;9.236;2023-01-09T20:17:19;3.80;99.90
5930;DHT22;2990;48.746;9.236;2023-01-09T20:23:47;3.80;99.90
5930;DHT22;2990;48.746;9.236;2023-01-09T20:26:13;3.70;99.90
5930;DHT22;2990;48.746;9.236;2023-01-09T20:31:38;3.60;99.90
5930;DHT22;2990;48.746;9.236;2023-01-09T20:40:36;3.70;99.90
5930;DHT22;2990;48.746;9.236;2023-01-09T20:43:28;3.70;99.90
5930;DHT22;2990;48.746;9.236;2023-01-09T20:48:41;3.60;99.90
5930;DHT22;2990;48.746;9.236;2023-01-09T20:51:07;3.60;99.90
5930;DHT22;2990;48.746;9.236;2023-01-09T20:53:34;3.60;99.90
5930;DHT22;2990;48.746;9.236;2023-01-09T20:56:01;3.60;99.90
5930;DHT22;2990;48.746;9.236;2023-01-09T20:58:33;3.60;99.90
5930;DHT22;2990;48.746;9.236;2023-01-09T21:01:14;3.60;99.90
5930;DHT22;2990;48.746;9.236;2023-01-09T21:03:40;3.60;99.90
5930;DHT22;2990;48.746;9.236;2023-01-09T21:09:55;3.60;99.90
5930;DHT22;2990;48.746;9.236;2023-01-09T21:12:35;3.60;99.90
5930;DHT22;2990;48.746;9.236;2023-01-09T21:15:07;3.60;99.90
5930;DHT22;2990;48.746;9.236;2023-01-09T21:17:38;3.60;99.90
5930;DHT22;2990;48.746;9.236;2023-01-09T21:20:31;3.60;99.90
5930;DHT22;2990;48.746;9.236;2023-01-09T21:22:57;3.60;99.90
5930;DHT22;2990;48.746;9.236;2023-01-09T21:25:23;3.60;99.90
5930;DHT22;2990;48.746;9.236;2023-01-09T21:27:48;3.60;99.90
5930;DHT22;2990;48.746;9.236;2023-01-09T21:32:44;3.60;99.90
5930;DHT22;2990;48.746;9.236;2023-01-09T21:35:12;3.60;99.90
5930;DHT22;2990;48.746;9.236;2023-01-09T21:37:38;3.60;99.90
5930;DHT22;2990;48.746;9.236;2023-01-09T21:40:13;3.60;99.90
5930;DHT22;2990;48.746;9.236;2023-01-09T21:42:44;3.60;99.90
5930;DHT22;2990;48.746;9.236;2023-01-09T21:48:42;3.60;99.90
5930;DHT22;2990;48.746;9.236;2023-01-09T21:51:15;3.60;99.90
5930;DHT22;2990;48.746;9.236;2023-01-09T21:53:43;3.60;99.90
5930;DHT22;2990;48.746;9.236;2023-01-09T21:56:14;3.60;99.90
5930;DHT22;2990;48.746;9.236;2023-01-09T21:58:43;3.60;99.90
5930;DHT22;2990;48.746;9.236;2023-01-09T22:01:09;3.60;99.90
5930;DHT22;2990;48.746;9.236;2023-01-09T22:03:38;3.70;99.90
5930;DHT22;2990;48.746;9.236;2023-01-09T22:06:09;3.70;99.90
5930;DHT22;2990;48.746;9.236;2023-01-09T22:08:37;3.70;99.90
5930;DHT22;2990;48.746;9.236;2023-01-09T22:11:03;3.70;99.90
5930;DHT22;2990;48.746;9.236;2023-01-09T22:13:35;3.70;99.90
5930;DHT22;2990;48.746;9.236;2023-01-09T22:16:06;3.70;99.90
5930;DHT22;2990;48.746;9.236;2023-01-09T22:18:35;3.80;99.90
5930;DHT22;2990;48.746;9.236;2023-01-09T22:21:02;3.70;99.90
5930;DHT22;2990;48.746;9.236;2023-01-09T22:23:30;3.70;99.90
5930;DHT22;2990;48.746;9.236;2023-01-09T22:25:58;3.80;99.90